Time;durP1;ratioP1;P1;durP2;ratioP2;P2;SDS_P1;SDS_P2;PMS_P1;PMS_P2;Temp;Humidity;BMP_temperature;BMP_pressure;BME280_temperature;BME280_humidity;BME280_pressure;Samples;Min_cycle;Max_cycle;Signal;HPM_P1;HPM_P2
2021/09/05 00:01:11;;;;;;;3.75;1.85;;;11.60;85.30;;;;;;6216233;23;20009;-84
2021/09/05 00:03:36;;;;;;;4.53;2.72;;;11.50;85.00;;;;;;6216636;23;20005;-84
2021/09/05 00:06:02;;;;;;;2.97;1.98;;;11.50;84.70;;;;;;6241872;23;20087;-84
2021/09/05 00:08:28;;;;;;;3.20;2.17;;;11.50;85.20;;;;;;6218135;23;20001;-84
2021/09/05 00:10:54;;;;;;;5.38;2.80;;;11.50;85.10;;;;;;6218384;23;20004;-84
2021/09/05 00:13:19;;;;;;;6.32;2.90;;;11.50;85.80;;;;;;6216538;23;20040;-84
2021/09/05 00:15:46;;;;;;;4.13;2.95;;;11.50;86.30;;;;;;6216488;23;20059;-84
2021/09/05 00:18:11;;;;;;;4.85;3.50;;;11.40;86.60;;;;;;6218021;23;20077;-85
2021/09/05 00:20:37;;;;;;;4.95;2.83;;;11.40;86.50;;;;;;6217616;23;20028;-84
2021/09/05 00:23:03;;;;;;;5.72;3.47;;;11.40;86.10;;;;;;6217668;23;20024;-84
2021/09/05 00:25:32;;;;;;;4.82;3.20;;;11.40;86.40;;;;;;6218335;23;20001;-84
2021/09/05 00:27:59;;;;;;;8.23;4.00;;;11.30;86.70;;;;;;6216372;23;20328;-84
2021/09/05 00:30:25;;;;;;;5.28;3.17;;;11.20;87.40;;;;;;6216290;23;20094;-84
2021/09/05 00:32:51;;;;;;;4.93;3.03;;;11.20;87.90;;;;;;6217801;23;20005;-85
2021/09/05 00:35:16;;;;;;;4.32;3.25;;;11.10;87.70;;;;;;6216918;23;20008;-85
2021/09/05 00:37:42;;;;;;;3.22;2.78;;;11.10;87.50;;;;;;6241240;23;20016;-84
2021/09/05 00:40:08;;;;;;;4.15;2.65;;;11.00;87.20;;;;;;6241540;23;20013;-85
2021/09/05 00:42:34;;;;;;;7.07;3.63;;;11.00;88.00;;;;;;6216266;23;20085;-85
2021/09/05 00:45:00;;;;;;;6.88;3.58;;;10.90;87.80;;;;;;6216233;23;20488;-85
2021/09/05 00:47:26;;;;;;;4.28;2.70;;;10.90;88.00;;;;;;6216256;23;20324;-85
2021/09/05 00:49:51;;;;;;;4.07;2.83;;;11.00;87.50;;;;;;6215715;23;20050;-85
2021/09/05 00:52:20;;;;;;;4.57;3.20;;;11.00;87.20;;;;;;6216346;23;20001;-84
2021/09/05 00:54:47;;;;;;;3.47;2.33;;;11.00;87.00;;;;;;6216320;23;20004;-85
2021/09/05 00:57:14;;;;;;;4.93;2.53;;;11.10;86.80;;;;;;6216016;23;20440;-85
2021/09/05 00:59:41;;;;;;;2.72;2.25;;;11.10;86.50;;;;;;6216134;23;20437;-85
2021/09/05 01:02:08;;;;;;;3.47;2.50;;;11.20;86.50;;;;;;6216071;23;20420;-85
2021/09/05 01:04:34;;;;;;;4.10;2.50;;;11.20;86.20;;;;;;6216036;23;19997;-85
2021/09/05 01:07:00;;;;;;;4.45;2.72;;;11.20;86.00;;;;;;6216451;23;20027;-85
2021/09/05 01:09:27;;;;;;;3.97;2.67;;;11.30;85.90;;;;;;6216220;23;20020;-85
2021/09/05 01:11:53;;;;;;;5.35;2.85;;;11.30;85.50;;;;;;6215963;23;20421;-85
2021/09/05 01:14:19;;;;;;;3.42;2.40;;;11.30;85.30;;;;;;6215982;23;20005;-85
2021/09/05 01:16:44;;;;;;;4.32;2.75;;;11.30;86.20;;;;;;6217506;23;20316;-85
2021/09/05 01:19:15;;;;;;;4.75;2.70;;;11.30;86.00;;;;;;6242033;23;20009;-85
2021/09/05 01:21:42;;;;;;;4.05;2.35;;;11.30;85.80;;;;;;6216655;23;20087;-84
2021/09/05 01:24:09;;;;;;;6.57;3.25;;;11.30;85.60;;;;;;6217150;23;20000;-85
2021/09/05 01:26:38;;;;;;;5.22;2.67;;;11.20;85.50;;;;;;6216161;23;20036;-85
2021/09/05 01:29:05;;;;;;;3.55;2.33;;;11.20;85.90;;;;;;6224635;23;20009;-85
2021/09/05 01:31:40;;;;;;;5.75;2.90;;;11.20;85.90;;;;;;6231007;23;20020;-85
2021/09/05 01:34:07;;;;;;;5.55;3.03;;;11.10;86.40;;;;;;6254175;23;20001;-85
2021/09/05 01:36:33;;;;;;;5.10;2.60;;;11.10;86.90;;;;;;6218913;23;20005;-84
2021/09/05 01:38:59;;;;;;;4.57;2.85;;;11.10;87.30;;;;;;6215647;23;20012;-84
2021/09/05 01:41:25;;;;;;;3.40;2.58;;;11.10;88.20;;;;;;6215807;23;20031;-85
2021/09/05 01:44:00;;;;;;;4.65;2.38;;;11.10;87.30;;;;;;6215824;23;20033;-84
2021/09/05 01:46:26;;;;;;;3.03;2.10;;;11.10;87.10;;;;;;6216722;23;20005;-85
2021/09/05 01:48:51;;;;;;;4.35;2.95;;;11.00;87.10;;;;;;6217373;23;20035;-85
2021/09/05 01:51:18;;;;;;;4.75;2.72;;;11.00;87.60;;;;;;6215771;23;20019;-84
2021/09/05 01:53:43;;;;;;;4.22;2.45;;;11.00;87.30;;;;;;6215537;23;20005;-85
2021/09/05 01:56:09;;;;;;;2.42;2.00;;;10.90;87.90;;;;;;6216858;23;20071;-85
2021/09/05 01:58:35;;;;;;;4.00;2.38;;;10.90;87.50;;;;;;6216219;23;20491;-84
2021/09/05 02:01:01;;;;;;;3.63;2.30;;;10.90;87.50;;;;;;6216359;23;20035;-85
2021/09/05 02:03:27;;;;;;;3.05;2.25;;;10.90;87.50;;;;;;6216038;23;20028;-84
2021/09/05 02:05:52;;;;;;;3.95;2.10;;;10.80;87.50;;;;;;6215539;23;20061;-85
2021/09/05 02:08:18;;;;;;;3.75;2.60;;;10.80;87.40;;;;;;6215502;23;20009;-85
2021/09/05 02:10:44;;;;;;;2.80;2.15;;;10.80;87.40;;;;;;6215319;23;20032;-85
2021/09/05 02:13:10;;;;;;;4.85;2.50;;;10.70;87.30;;;;;;6215404;23;20005;-85
2021/09/05 02:15:35;;;;;;;3.10;2.53;;;10.70;87.30;;;;;;6215378;23;20420;-85
2021/09/05 02:18:01;;;;;;;2.88;2.35;;;10.60;87.70;;;;;;6215884;23;20008;-85
2021/09/05 02:20:27;;;;;;;4.25;2.40;;;10.60;87.40;;;;;;6215260;23;20328;-84
2021/09/05 02:22:54;;;;;;;3.03;2.30;;;10.50;87.50;;;;;;6217001;23;20004;-85
2021/09/05 02:25:19;;;;;;;5.20;3.03;;;10.50;87.60;;;;;;6215300;23;20091;-85
2021/09/05 02:27:45;;;;;;;3.47;2.20;;;10.50;87.80;;;;;;6240542;23;20029;-85
2021/09/05 02:30:11;;;;;;;4.47;2.58;;;10.50;87.70;;;;;;6240869;23;20040;-85
2021/09/05 02:32:37;;;;;;;3.40;2.50;;;10.50;87.80;;;;;;6215056;23;20013;-85
2021/09/05 02:35:07;;;;;;;4.78;2.55;;;10.50;88.00;;;;;;6216854;23;20003;-84
2021/09/05 02:37:35;;;;;;;4.40;3.55;;;10.60;87.90;;;;;;6214756;23;20021;-85
2021/09/05 02:40:04;;;;;;;6.05;3.22;;;10.60;87.80;;;;;;6214874;23;20016;-85
2021/09/05 02:42:30;;;;;;;4.38;2.65;;;10.60;88.10;;;;;;6215036;23;20005;-84
2021/09/05 02:44:55;;;;;;;4.88;2.97;;;10.60;87.90;;;;;;6216344;23;20364;-84
2021/09/05 02:47:21;;;;;;;4.57;2.60;;;10.60;87.80;;;;;;6240417;23;20009;-84
2021/09/05 02:49:47;;;;;;;4.65;3.42;;;10.50;87.50;;;;;;6216268;23;20063;-84
2021/09/05 02:52:12;;;;;;;3.80;3.03;;;10.50;88.10;;;;;;6215049;23;20083;-85
2021/09/05 02:54:39;;;;;;;3.75;2.58;;;10.50;88.10;;;;;;6240136;23;20001;-85
2021/09/05 02:57:05;;;;;;;4.40;2.50;;;10.40;87.90;;;;;;6214925;23;20011;-85
2021/09/05 02:59:32;;;;;;;4.18;3.05;;;10.40;88.30;;;;;;6214992;23;20034;-85
2021/09/05 03:01:59;;;;;;;7.13;3.30;;;10.30;88.70;;;;;;6215015;23;20004;-85
2021/09/05 03:04:25;;;;;;;4.82;2.58;;;10.30;89.10;;;;;;6214590;23;19997;-84
2021/09/05 03:06:51;;;;;;;5.22;2.50;;;10.30;89.40;;;;;;6216593;23;20004;-85
2021/09/05 03:09:16;;;;;;;3.97;2.75;;;10.30;89.40;;;;;;6215324;23;20001;-84
2021/09/05 03:11:42;;;;;;;5.68;3.00;;;10.30;89.70;;;;;;6215108;23;20005;-85
2021/09/05 03:14:08;;;;;;;6.15;3.25;;;10.20;90.10;;;;;;6216124;23;20368;-84
2021/09/05 03:16:34;;;;;;;5.40;3.03;;;10.20;90.00;;;;;;6214921;23;20011;-84
2021/09/05 03:18:59;;;;;;;5.95;3.28;;;10.20;90.10;;;;;;6216468;23;20320;-85
2021/09/05 03:21:25;;;;;;;5.75;3.05;;;10.20;90.00;;;;;;6216363;23;20325;-85
2021/09/05 03:23:51;;;;;;;5.05;2.90;;;10.20;90.30;;;;;;6214634;23;20032;-85
2021/09/05 03:26:16;;;;;;;4.50;2.88;;;10.20;90.20;;;;;;6240594;23;20008;-85
2021/09/05 03:28:42;;;;;;;4.55;2.83;;;10.20;90.20;;;;;;6216054;23;20051;-85
2021/09/05 03:31:08;;;;;;;4.72;2.85;;;10.20;90.00;;;;;;6239954;23;20013;-84
2021/09/05 03:33:33;;;;;;;4.63;2.20;;;10.20;90.00;;;;;;6240004;23;20028;-84
2021/09/05 03:35:59;;;;;;;4.43;3.10;;;10.20;89.70;;;;;;6214706;23;20005;-85
2021/09/05 03:38:25;;;;;;;4.40;3.20;;;10.20;90.00;;;;;;6214807;23;20021;-85
2021/09/05 03:40:50;;;;;;;5.72;3.45;;;10.30;90.20;;;;;;6216253;23;20000;-84
2021/09/05 03:43:16;;;;;;;5.47;3.15;;;10.30;90.50;;;;;;6215200;23;20013;-84
2021/09/05 03:45:41;;;;;;;4.05;2.78;;;10.30;90.50;;;;;;6240033;23;20306;-85
2021/09/05 03:48:07;;;;;;;7.35;3.83;;;10.30;90.50;;;;;;6214796;23;20011;-85
2021/09/05 03:50:33;;;;;;;5.35;3.15;;;10.40;90.70;;;;;;6215855;23;20005;-85
2021/09/05 03:52:58;;;;;;;6.85;3.60;;;10.40;90.70;;;;;;6216306;23;20005;-85
2021/09/05 03:55:25;;;;;;;5.63;3.33;;;10.50;90.90;;;;;;6214647;23;20113;-85
2021/09/05 03:57:51;;;;;;;3.97;3.22;;;10.50;91.00;;;;;;6214520;23;20000;-85
2021/09/05 04:00:16;;;;;;;4.82;3.10;;;10.60;91.00;;;;;;6216388;23;20024;-85
2021/09/05 04:02:42;;;;;;;8.63;4.68;;;10.60;91.00;;;;;;6214615;23;20005;-85
2021/09/05 04:05:08;;;;;;;6.50;3.35;;;10.70;91.20;;;;;;6214608;23;20001;-84
2021/09/05 04:07:35;;;;;;;7.50;4.38;;;10.70;91.20;;;;;;6214554;23;20084;-85
2021/09/05 04:10:10;;;;;;;7.50;3.45;;;10.80;91.10;;;;;;6216075;23;20040;-85
2021/09/05 04:12:43;;;;;;;7.93;3.47;;;10.80;91.30;;;;;;6215044;23;20011;-84
2021/09/05 04:15:10;;;;;;;6.03;3.50;;;10.90;91.20;;;;;;6214812;23;20016;-85
2021/09/05 04:17:36;;;;;;;7.13;3.42;;;11.00;91.10;;;;;;6216583;23;20095;-84
2021/09/05 04:20:02;;;;;;;7.35;3.38;;;11.00;91.20;;;;;;6216301;23;20345;-85
2021/09/05 04:22:28;;;;;;;4.57;3.22;;;11.10;91.10;;;;;;6216928;23;20000;-85
2021/09/05 04:24:54;;;;;;;5.63;3.55;;;11.10;91.00;;;;;;6241658;23;20104;-85
2021/09/05 04:27:20;;;;;;;5.30;3.33;;;11.20;91.20;;;;;;6216947;23;20009;-85
2021/09/05 04:29:45;;;;;;;6.38;3.38;;;11.30;91.10;;;;;;6216269;23;20036;-84
2021/09/05 04:32:11;;;;;;;6.47;3.17;;;11.30;91.00;;;;;;6216319;23;20000;-85
2021/09/05 04:34:37;;;;;;;5.45;3.53;;;11.40;90.90;;;;;;6215994;23;20001;-84
2021/09/05 04:37:03;;;;;;;3.85;2.80;;;11.50;91.00;;;;;;6216453;23;20027;-84
2021/09/05 04:39:28;;;;;;;5.57;3.40;;;11.50;90.80;;;;;;6218186;23;20084;-85
2021/09/05 04:41:55;;;;;;;4.93;2.92;;;11.60;90.60;;;;;;6217461;23;20383;-84
2021/09/05 04:44:21;;;;;;;5.43;3.50;;;11.70;90.70;;;;;;6216289;23;20092;-85
2021/09/05 04:46:46;;;;;;;5.10;3.35;;;11.70;90.60;;;;;;6217875;23;20025;-85
2021/09/05 04:49:12;;;;;;;4.63;3.17;;;11.80;90.80;;;;;;6216105;23;19997;-85
2021/09/05 04:51:38;;;;;;;5.57;3.55;;;11.90;90.60;;;;;;6216991;23;20043;-84
2021/09/05 04:54:04;;;;;;;5.43;3.03;;;11.90;90.70;;;;;;6241332;23;20004;-85
2021/09/05 04:56:30;;;;;;;4.82;3.67;;;12.00;90.50;;;;;;6215938;23;20016;-85
2021/09/05 04:58:55;;;;;;;4.97;2.92;;;12.00;90.40;;;;;;6216445;23;20053;-85
2021/09/05 05:01:21;;;;;;;4.50;2.90;;;12.10;90.20;;;;;;6216206;23;20383;-84
2021/09/05 05:03:47;;;;;;;5.03;3.05;;;12.20;90.10;;;;;;6216074;23;20083;-85
2021/09/05 05:06:12;;;;;;;4.35;3.00;;;12.30;89.50;;;;;;6215965;23;20012;-85
2021/09/05 05:08:38;;;;;;;5.10;3.40;;;12.40;88.60;;;;;;6215970;23;20115;-85
2021/09/05 05:11:04;;;;;;;4.10;2.75;;;12.40;88.10;;;;;;6215802;23;20016;-85
2021/09/05 05:13:30;;;;;;;7.93;3.03;;;12.40;86.60;;;;;;6215968;23;20008;-85
2021/09/05 05:15:56;;;;;;;5.05;2.78;;;12.50;85.40;;;;;;6215951;23;20008;-85
2021/09/05 05:18:24;;;;;;;4.50;2.72;;;12.50;85.10;;;;;;6217503;23;20436;-86
2021/09/05 05:20:51;;;;;;;5.90;2.85;;;12.50;84.50;;;;;;6217997;23;20000;-85
2021/09/05 05:23:17;;;;;;;3.92;2.90;;;12.50;84.20;;;;;;6216665;23;20302;-85
2021/09/05 05:25:43;;;;;;;4.85;2.97;;;12.50;83.60;;;;;;6241969;23;20324;-85
2021/09/05 05:28:08;;;;;;;5.90;3.15;;;12.60;83.60;;;;;;6215745;23;19997;-85
2021/09/05 05:30:34;;;;;;;8.63;3.83;;;12.60;82.70;;;;;;6240916;23;20040;-85
2021/09/05 05:33:00;;;;;;;6.07;3.47;;;12.60;82.80;;;;;;6217322;23;20023;-86
2021/09/05 05:35:26;;;;;;;5.47;3.50;;;12.60;82.40;;;;;;6215548;23;20036;-86
2021/09/05 05:37:51;;;;;;;5.13;3.20;;;12.60;82.50;;;;;;6217070;23;20048;-86
2021/09/05 05:40:22;;;;;;;5.55;3.45;;;12.70;81.20;;;;;;6241437;23;20154;-85
2021/09/05 05:42:48;;;;;;;5.10;3.42;;;12.70;82.00;;;;;;6218066;23;19996;-85
2021/09/05 05:45:17;;;;;;;6.22;3.80;;;12.80;82.40;;;;;;6216895;23;20074;-86
2021/09/05 05:47:43;;;;;;;4.60;2.85;;;12.90;82.00;;;;;;6216209;23;20005;-85
2021/09/05 05:50:09;;;;;;;4.65;3.00;;;12.90;81.10;;;;;;6217009;23;20084;-85
2021/09/05 05:52:35;;;;;;;5.00;2.92;;;12.90;80.90;;;;;;6215810;23;20440;-85
2021/09/05 05:55:01;;;;;;;4.88;3.55;;;13.00;81.10;;;;;;6215662;23;20019;-85
2021/09/05 05:57:27;;;;;;;5.20;2.65;;;12.90;80.60;;;;;;6217051;23;20091;-85
2021/09/05 05:59:53;;;;;;;4.93;3.00;;;13.00;80.70;;;;;;6215354;23;20013;-85
2021/09/05 06:02:19;;;;;;;3.20;2.15;;;12.90;79.90;;;;;;6240756;23;20001;-85
2021/09/05 06:04:45;;;;;;;5.80;3.05;;;12.90;80.20;;;;;;6216621;23;20004;-86
2021/09/05 06:07:11;;;;;;;5.15;2.22;;;13.00;80.30;;;;;;6215452;23;20001;-85
2021/09/05 06:09:43;;;;;;;5.60;2.50;;;13.10;80.30;;;;;;6215323;23;20013;-85
2021/09/05 06:12:10;;;;;;;4.90;2.80;;;13.20;79.60;;;;;;6216925;23;19997;-86
2021/09/05 06:14:37;;;;;;;4.53;2.13;;;13.20;78.50;;;;;;6215396;23;20012;-85
2021/09/05 06:17:03;;;;;;;2.53;2.25;;;13.20;78.50;;;;;;6215830;23;20000;-85
2021/09/05 06:19:29;;;;;;;3.10;2.45;;;13.30;78.60;;;;;;6215462;23;20008;-85
2021/09/05 06:21:55;;;;;;;3.55;2.45;;;13.30;78.00;;;;;;6215512;23;20397;-85
2021/09/05 06:24:20;;;;;;;3.30;2.30;;;13.40;77.70;;;;;;6214968;23;20009;-85
2021/09/05 06:26:46;;;;;;;3.70;1.88;;;13.40;76.50;;;;;;6215781;23;20004;-84
2021/09/05 06:29:12;;;;;;;3.72;2.50;;;13.50;76.90;;;;;;6215559;23;20447;-85
2021/09/05 06:31:38;;;;;;;3.03;2.20;;;13.70;77.00;;;;;;6215756;23;20095;-85
2021/09/05 06:34:03;;;;;;;2.20;1.73;;;13.80;76.40;;;;;;6215818;23;20005;-84
2021/09/05 06:36:32;;;;;;;1.98;1.60;;;13.80;75.80;;;;;;6217097;23;20082;-85
2021/09/05 06:38:58;;;;;;;4.10;2.30;;;13.90;75.80;;;;;;6216481;23;20023;-84
2021/09/05 06:41:24;;;;;;;5.25;2.42;;;14.00;74.60;;;;;;6215168;23;20083;-85
2021/09/05 06:43:49;;;;;;;2.85;2.33;;;14.00;73.40;;;;;;6214979;23;20012;-85
2021/09/05 06:46:15;;;;;;;2.80;1.77;;;14.00;73.10;;;;;;6215208;23;20004;-85
2021/09/05 06:48:42;;;;;;;6.57;1.77;;;14.20;72.00;;;;;;6216589;23;20001;-85
2021/09/05 06:51:08;;;;;;;2.00;1.83;;;14.20;72.90;;;;;;6216180;23;20004;-85
2021/09/05 06:53:33;;;;;;;2.10;1.90;;;14.30;72.70;;;;;;6216613;23;20444;-85
2021/09/05 06:55:59;;;;;;;2.75;2.13;;;14.40;72.70;;;;;;6216512;23;20294;-85
2021/09/05 06:58:25;;;;;;;4.25;2.40;;;14.50;71.50;;;;;;6214808;23;20007;-85
2021/09/05 07:00:52;;;;;;;2.58;2.17;;;14.50;70.60;;;;;;6214909;23;20027;-85
2021/09/05 07:03:17;;;;;;;3.97;1.65;;;14.50;70.90;;;;;;6214973;23;20012;-85
2021/09/05 07:05:43;;;;;;;1.83;1.52;;;14.40;70.70;;;;;;6214894;23;20004;-86
2021/09/05 07:08:09;;;;;;;3.28;1.73;;;14.50;70.90;;;;;;6215023;23;20008;-85
2021/09/05 07:10:36;;;;;;;3.97;2.20;;;14.60;71.20;;;;;;6240312;23;20015;-84
2021/09/05 07:13:02;;;;;;;4.40;2.40;;;14.70;70.80;;;;;;6216386;23;20005;-85
2021/09/05 07:15:27;;;;;;;2.20;1.75;;;14.80;69.40;;;;;;6216202;23;20497;-85
2021/09/05 07:17:53;;;;;;;2.88;2.17;;;14.80;67.80;;;;;;6240162;23;20011;-85
2021/09/05 07:20:19;;;;;;;3.28;2.35;;;14.80;68.10;;;;;;6216701;23;20131;-85
2021/09/05 07:22:45;;;;;;;3.40;1.80;;;14.90;67.70;;;;;;6216312;23;20006;-85
2021/09/05 07:25:10;;;;;;;3.15;1.92;;;14.80;67.50;;;;;;6215177;23;20071;-85
2021/09/05 07:27:36;;;;;;;3.10;2.10;;;14.90;68.10;;;;;;6216933;23;20444;-85
2021/09/05 07:30:04;;;;;;;1.98;1.52;;;15.00;67.80;;;;;;6227752;23;20072;-85
2021/09/05 07:32:30;;;;;;;3.13;1.83;;;15.10;67.30;;;;;;6228642;23;20008;-86
2021/09/05 07:34:56;;;;;;;3.03;1.50;;;15.20;67.10;;;;;;6230356;23;20005;-86
2021/09/05 07:37:21;;;;;;;1.70;1.60;;;15.20;65.80;;;;;;6218651;23;20020;-86
2021/09/05 07:39:47;;;;;;;2.25;1.50;;;15.30;66.10;;;;;;6240420;23;20464;-86
2021/09/05 07:42:13;;;;;;;3.20;1.77;;;15.40;66.30;;;;;;6216138;23;20004;-85
2021/09/05 07:44:39;;;;;;;1.48;1.30;;;15.50;66.40;;;;;;6214939;23;20417;-85
2021/09/05 07:47:04;;;;;;;2.60;1.50;;;15.60;65.00;;;;;;6214489;23;20417;-85
2021/09/05 07:49:30;;;;;;;1.75;1.65;;;15.70;64.50;;;;;;6216493;23;20071;-85
2021/09/05 07:51:56;;;;;;;2.45;1.73;;;15.70;64.40;;;;;;6216442;23;20433;-85
2021/09/05 07:54:22;;;;;;;2.22;1.75;;;15.80;63.40;;;;;;6241940;23;20040;-86
2021/09/05 07:56:49;;;;;;;3.47;1.92;;;15.80;63.50;;;;;;6218722;23;20000;-85
2021/09/05 07:59:15;;;;;;;1.65;1.55;;;15.90;63.30;;;;;;6218477;23;20087;-84
2021/09/05 08:01:40;;;;;;;1.65;1.33;;;15.90;62.50;;;;;;6223502;23;20055;-85
2021/09/05 08:04:06;;;;;;;2.38;1.55;;;16.00;61.30;;;;;;6229943;23;20028;-85
2021/09/05 08:06:32;;;;;;;1.70;1.42;;;16.00;60.90;;;;;;6225323;23;20401;-85
2021/09/05 08:08:58;;;;;;;2.03;1.65;;;16.00;60.90;;;;;;6246139;23;20108;-85
2021/09/05 08:11:24;;;;;;;2.22;1.70;;;16.10;60.90;;;;;;6222989;23;20005;-85
2021/09/05 08:13:51;;;;;;;2.83;1.77;;;16.20;61.10;;;;;;6220818;23;20082;-86
2021/09/05 08:16:16;;;;;;;2.05;1.42;;;16.10;59.50;;;;;;6219679;23;20001;-85
2021/09/05 08:18:42;;;;;;;1.48;1.20;;;16.10;58.40;;;;;;6244073;23;20011;-85
2021/09/05 08:21:09;;;;;;;1.90;1.17;;;16.10;58.60;;;;;;6218079;23;20005;-85
2021/09/05 08:23:35;;;;;;;2.58;1.65;;;16.20;58.60;;;;;;6216470;23;20316;-86
2021/09/05 08:26:02;;;;;;;2.70;1.67;;;16.20;58.40;;;;;;6215791;23;20159;-87
2021/09/05 08:28:27;;;;;;;1.25;1.15;;;16.30;58.60;;;;;;6215957;23;20004;-85
2021/09/05 08:30:53;;;;;;;1.83;1.33;;;16.40;58.30;;;;;;6215897;23;20034;-85
2021/09/05 08:33:19;;;;;;;1.63;1.42;;;16.50;57.60;;;;;;6217559;23;19993;-85
2021/09/05 08:35:46;;;;;;;1.85;1.17;;;16.40;56.20;;;;;;6215887;23;20435;-85
2021/09/05 08:38:12;;;;;;;1.70;1.30;;;16.40;56.80;;;;;;6216102;23;20017;-86
2021/09/05 08:40:44;;;;;;;1.95;1.50;;;16.50;56.90;;;;;;6217423;23;20011;-85
2021/09/05 08:43:10;;;;;;;2.53;1.77;;;16.60;56.50;;;;;;6216168;23;20008;-85
2021/09/05 08:45:37;;;;;;;1.35;1.23;;;16.60;57.40;;;;;;6217763;23;20030;-86
2021/09/05 08:48:04;;;;;;;1.88;1.50;;;16.60;56.50;;;;;;6216261;23;20012;-87
2021/09/05 08:50:31;;;;;;;1.88;1.50;;;16.60;56.20;;;;;;6214912;23;20009;-87
2021/09/05 08:52:58;;;;;;;1.45;1.10;;;16.60;55.60;;;;;;6215861;23;20059;-87
2021/09/05 08:55:24;;;;;;;1.88;1.17;;;16.70;56.10;;;;;;6217219;23;19997;-86
2021/09/05 08:57:50;;;;;;;1.58;0.85;;;16.70;54.40;;;;;;6217892;23;20005;-86
2021/09/05 09:00:16;;;;;;;1.00;0.90;;;16.80;53.70;;;;;;6240997;23;20094;-86
2021/09/05 09:02:53;;;;;;;0.93;0.73;;;16.90;53.30;;;;;;6214684;23;19997;-85
2021/09/05 09:05:33;;;;;;;1.40;1.05;;;17.00;52.30;;;;;;6215681;23;20000;-86
2021/09/05 09:08:00;;;;;;;1.23;1.00;;;17.00;52.20;;;;;;6239750;23;20011;-87
2021/09/05 09:10:26;;;;;;;1.90;1.27;;;17.20;52.20;;;;;;6216326;23;20051;-86
2021/09/05 09:12:52;;;;;;;1.67;1.08;;;17.20;50.80;;;;;;6214466;23;20009;-85
2021/09/05 09:15:32;;;;;;;3.10;1.25;;;17.20;49.70;;;;;;6214944;23;20440;-86
2021/09/05 09:18:05;;;;;;;1.92;0.98;;;17.20;48.10;;;;;;6215253;23;20005;-86
2021/09/05 09:20:36;;;;;;;1.58;0.88;;;17.20;49.30;;;;;;6215277;23;20074;-86
2021/09/05 09:23:09;;;;;;;1.35;0.90;;;17.20;48.30;;;;;;6217203;23;20036;-86
2021/09/05 09:25:35;;;;;;;0.98;0.98;;;17.20;47.40;;;;;;6217161;23;19993;-87
2021/09/05 09:28:02;;;;;;;0.98;0.98;;;17.10;47.10;;;;;;6215715;23;20079;-86
2021/09/05 09:30:34;;;;;;;2.05;1.02;;;17.10;47.30;;;;;;6215644;23;20293;-87
2021/09/05 09:33:00;;;;;;;1.27;1.10;;;17.10;46.60;;;;;;6215401;23;20011;-87
2021/09/05 09:35:45;;;;;;;0.93;0.85;;;17.00;47.60;;;;;;6215562;23;20001;-87
2021/09/05 09:38:13;;;;;;;0.73;0.73;;;17.00;47.00;;;;;;6217130;23;20019;-86
2021/09/05 09:40:39;;;;;;;1.27;1.15;;;17.20;47.50;;;;;;6217182;23;20003;-86
2021/09/05 09:43:18;;;;;;;1.02;0.93;;;17.30;47.80;;;;;;6215560;23;20016;-86
2021/09/05 09:45:44;;;;;;;1.77;1.10;;;17.40;46.30;;;;;;6215557;23;20413;-87
2021/09/05 09:48:10;;;;;;;1.40;1.23;;;17.40;46.20;;;;;;6217324;23;20043;-86
2021/09/05 09:50:45;;;;;;;1.23;1.13;;;17.40;45.70;;;;;;6240676;23;20004;-86
2021/09/05 09:53:11;;;;;;;1.02;0.88;;;17.40;45.60;;;;;;6215283;23;20039;-88
2021/09/05 09:55:39;;;;;;;2.58;1.25;;;17.30;45.40;;;;;;6216779;23;19997;-87
2021/09/05 09:58:05;;;;;;;1.05;0.90;;;17.30;46.00;;;;;;6215373;23;20008;-88
2021/09/05 10:00:32;;;;;;;0.88;0.80;;;17.40;46.20;;;;;;6213363;23;20152;-88
2021/09/05 10:02:59;;;;;;;1.35;1.15;;;17.40;46.50;;;;;;6215147;23;20325;-86
2021/09/05 10:05:27;;;;;;;3.50;1.38;;;17.60;46.40;;;;;;6216711;23;20008;-88
2021/09/05 10:07:54;;;;;;;1.33;1.23;;;17.70;46.40;;;;;;6215148;23;20438;-86
2021/09/05 10:10:21;;;;;;;1.00;0.75;;;17.80;44.80;;;;;;6215134;23;20048;-86
2021/09/05 10:12:47;;;;;;;1.20;1.08;;;17.80;44.30;;;;;;6215322;23;20051;-86
2021/09/05 10:15:13;;;;;;;1.60;1.20;;;17.70;44.60;;;;;;6215041;23;20005;-86
2021/09/05 10:17:39;;;;;;;1.88;1.17;;;17.70;44.60;;;;;;6215093;23;20012;-86
2021/09/05 10:20:06;;;;;;;1.10;1.00;;;17.70;43.80;;;;;;6216381;23;20000;-86
2021/09/05 10:22:32;;;;;;;2.13;1.65;;;17.60;44.30;;;;;;6215836;23;20483;-84
2021/09/05 10:25:03;;;;;;;1.05;0.98;;;17.70;44.70;;;;;;6216623;23;20023;-86
2021/09/05 10:27:32;;;;;;;2.00;0.93;;;17.80;44.80;;;;;;6211240;23;20005;-85
2021/09/05 10:30:12;;;;;;;2.15;1.10;;;17.90;44.30;;;;;;6216576;23;20055;-91
2021/09/05 10:32:53;;;;;;;0.90;0.90;;;17.90;42.60;;;;;;6211099;23;20005;-89
2021/09/05 10:35:47;;;;;;;1.27;1.05;;;17.90;43.80;;;;;;6215946;23;19996;-93
2021/09/05 10:38:23;;;;;;;1.20;1.08;;;17.90;43.80;;;;;;6215150;23;20372;-92
2021/09/05 10:40:53;;;;;;;1.00;1.00;;;18.00;44.10;;;;;;6217424;23;20023;-91
2021/09/05 10:44:20;;;;;;;1.30;0.90;;;18.10;44.50;;;;;;6215265;23;20005;-89
2021/09/05 10:47:35;;;;;;;1.17;1.08;;;18.20;43.40;;;;;;6095276;23;20066;-90
2021/09/05 10:50:06;;;;;;;2.58;1.63;;;18.30;42.80;;;;;;6071382;23;20074;-89
2021/09/05 10:53:18;;;;;;;1.23;1.13;;;18.20;42.90;;;;;;6197855;23;20096;-90
2021/09/05 10:56:15;;;;;;;1.42;1.08;;;18.00;41.40;;;;;;6070700;23;20015;-91
2021/09/05 10:59:06;;;;;;;1.15;0.93;;;17.90;42.30;;;;;;6093206;23;20477;-90
2021/09/05 11:01:57;;;;;;;0.77;0.77;;;18.00;43.10;;;;;;6096563;23;20308;-90
2021/09/05 11:04:52;;;;;;;1.83;1.38;;;18.10;43.10;;;;;;6066541;23;20470;-92
2021/09/05 11:07:40;;;;;;;1.20;1.02;;;18.20;42.20;;;;;;6198065;23;20064;-92
2021/09/05 11:10:52;;;;;;;1.58;0.95;;;18.30;42.20;;;;;;6209174;23;20099;-92
2021/09/05 11:13:49;;;;;;;1.23;1.00;;;18.20;41.60;;;;;;6200958;23;20012;-90
2021/09/05 11:16:37;;;;;;;2.05;1.10;;;18.20;41.70;;;;;;6209949;23;20015;-91
2021/09/05 11:19:06;;;;;;;1.27;1.10;;;18.30;41.60;;;;;;6214384;23;20001;-95
2021/09/05 11:21:33;;;;;;;2.47;1.00;;;18.30;42.10;;;;;;6213857;23;20011;-92
2021/09/05 11:24:02;;;;;;;1.13;1.00;;;18.30;41.40;;;;;;6215257;23;20013;-89
2021/09/05 11:26:28;;;;;;;0.93;0.80;;;18.30;41.60;;;;;;6212538;23;20008;-89
2021/09/05 11:29:27;;;;;;;1.55;1.27;;;18.40;41.70;;;;;;6214535;23;20026;-93
2021/09/05 11:32:09;;;;;;;1.20;1.10;;;18.40;40.00;;;;;;6113870;23;20017;-88
2021/09/05 11:34:52;;;;;;;2.63;1.50;;;18.40;41.40;;;;;;6216623;23;20004;-89
2021/09/05 11:37:45;;;;;;;1.48;1.00;;;18.40;41.60;;;;;;6215520;23;20017;-89
2021/09/05 11:40:19;;;;;;;1.67;1.58;;;18.30;41.20;;;;;;6217615;23;20015;-90
2021/09/05 11:43:01;;;;;;;1.20;1.08;;;18.40;41.70;;;;;;6195128;23;20027;-92
2021/09/05 11:45:35;;;;;;;1.10;1.00;;;18.30;41.20;;;;;;6197673;23;20019;-93
2021/09/05 11:48:50;;;;;;;1.55;0.80;;;18.40;41.60;;;;;;6216137;22;20016;-96
2021/09/05 11:51:29;;;;;;;1.23;1.13;;;18.50;41.20;;;;;;6226917;22;20047;-93
2021/09/05 11:54:14;;;;;;;2.05;1.42;;;18.50;40.80;;;;;;6225758;23;20011;-93
2021/09/05 11:56:40;;;;;;;1.15;0.98;;;18.50;39.60;;;;;;6231946;23;20004;-92
2021/09/05 11:59:13;;;;;;;2.75;1.23;;;18.40;40.40;;;;;;6233459;23;19997;-90
2021/09/05 12:01:48;;;;;;;1.70;1.30;;;18.40;40.30;;;;;;6228723;23;20028;-94
2021/09/05 12:04:22;;;;;;;1.77;1.17;;;18.20;40.70;;;;;;6227742;23;20027;-92
2021/09/05 12:06:51;;;;;;;1.27;1.17;;;18.10;41.10;;;;;;6220375;23;20035;-92
2021/09/05 12:09:29;;;;;;;1.98;1.13;;;18.00;41.40;;;;;;6218304;23;20064;-92
2021/09/05 12:13:01;;;;;;;1.65;1.00;;;17.90;40.40;;;;;;6224393;23;20016;-95
2021/09/05 12:15:31;;;;;;;;;;;;;;;;;;;;;
2021/09/05 12:18:16;;;;;;;0.80;0.80;;;17.90;41.70;;;;;;6214856;23;20091;-94
2021/09/05 12:20:49;;;;;;;1.30;1.20;;;18.10;41.70;;;;;;6210066;23;20084;-92
2021/09/05 12:23:33;;;;;;;1.05;0.98;;;18.20;41.50;;;;;;6212254;23;20067;-91
2021/09/05 12:26:02;;;;;;;1.45;1.02;;;18.30;40.90;;;;;;6212098;23;20009;-94
2021/09/05 12:28:33;;;;;;;1.65;1.17;;;18.40;41.30;;;;;;6212165;23;20083;-94
2021/09/05 12:31:07;;;;;;;1.83;1.40;;;18.60;41.30;;;;;;6209664;23;20021;-92
2021/09/05 12:33:34;;;;;;;1.30;1.15;;;18.70;41.10;;;;;;6210203;23;20004;-92
2021/09/05 12:36:35;;;;;;;1.52;1.10;;;18.90;41.00;;;;;;6189612;23;20031;-95
2021/09/05 12:39:06;;;;;;;1.02;0.98;;;19.10;41.00;;;;;;6213503;23;20008;-91
2021/09/05 12:42:13;;;;;;;2.85;1.00;;;19.20;40.90;;;;;;6221109;23;20004;-95
2021/09/05 12:52:07;;;;;;;1.55;1.15;;;20.30;38.70;;;;;;6215997;23;20031;-95
2021/09/05 12:54:38;;;;;;;1.40;1.27;;;20.60;39.50;;;;;;6194447;23;20008;-95
2021/09/05 13:03:04;;;;;;;2.70;1.30;;;21.70;40.60;;;;;;6184483;23;20029;-94
2021/09/05 13:05:31;;;;;;;2.17;1.30;;;22.10;39.00;;;;;;6189340;23;20020;-94
2021/09/05 13:09:06;;;;;;;0.93;0.93;;;22.20;37.80;;;;;;6192946;23;20030;-95
2021/09/05 13:20:15;;;;;;;0.90;0.90;;;22.10;39.70;;;;;;6202767;23;20044;-94
2021/09/05 13:23:24;;;;;;;0.85;0.85;;;22.70;38.40;;;;;;6205944;23;20067;-96